sensor_id;sensor_type;location;lat;lon;timestamp;temperature;humidity
7206;DHT22;3644;53.480;10.004;2023-08-08T00:00:27;15.60;99.90
7206;DHT22;3644;53.480;10.004;2023-08-08T00:02:53;15.60;99.90
7206;DHT22;3644;53.480;10.004;2023-08-08T00:05:18;15.70;99.90
7206;DHT22;3644;53.480;10.004;2023-08-08T00:07:45;15.60;99.90
7206;DHT22;3644;53.480;10.004;2023-08-08T00:10:10;15.50;99.90
7206;DHT22;3644;53.480;10.004;2023-08-08T00:12:36;15.50;99.90
7206;DHT22;3644;53.480;10.004;2023-08-08T00:15:01;15.40;99.90
7206;DHT22;3644;53.480;10.004;2023-08-08T00:17:27;15.50;99.90
7206;DHT22;3644;53.480;10.004;2023-08-08T00:19:53;15.60;99.90
7206;DHT22;3644;53.480;10.004;2023-08-08T00:22:18;15.60;99.90
7206;DHT22;3644;53.480;10.004;2023-08-08T00:24:44;15.80;99.90
7206;DHT22;3644;53.480;10.004;2023-08-08T00:27:09;15.70;99.90
7206;DHT22;3644;53.480;10.004;2023-08-08T00:29:34;15.80;99.90
7206;DHT22;3644;53.480;10.004;2023-08-08T00:32:00;15.90;99.90
7206;DHT22;3644;53.480;10.004;2023-08-08T00:34:25;15.60;99.90
7206;DHT22;3644;53.480;10.004;2023-08-08T00:36:51;15.50;99.90
7206;DHT22;3644;53.480;10.004;2023-08-08T00:39:16;15.60;99.90
7206;DHT22;3644;53.480;10.004;2023-08-08T00:41:42;15.50;99.90
7206;DHT22;3644;53.480;10.004;2023-08-08T00:44:07;15.70;99.90
7206;DHT22;3644;53.480;10.004;2023-08-08T00:46:33;15.60;99.90
7206;DHT22;3644;53.480;10.004;2023-08-08T00:48:58;15.40;99.90
7206;DHT22;3644;53.480;10.004;2023-08-08T00:51:25;15.50;99.90
7206;DHT22;3644;53.480;10.004;2023-08-08T00:53:50;15.50;99.90
7206;DHT22;3644;53.480;10.004;2023-08-08T00:56:17;15.60;99.90
7206;DHT22;3644;53.480;10.004;2023-08-08T00:58:43;15.50;99.90
7206;DHT22;3644;53.480;10.004;2023-08-08T01:01:11;15.30;99.90
7206;DHT22;3644;53.480;10.004;2023-08-08T01:03:37;15.60;99.90
7206;DHT22;3644;53.480;10.004;2023-08-08T01:06:10;15.50;99.90
7206;DHT22;3644;53.480;10.004;2023-08-08T01:08:51;15.40;99.90
7206;DHT22;3644;53.480;10.004;2023-08-08T01:11:20;15.30;99.90
7206;DHT22;3644;53.480;10.004;2023-08-08T01:13:46;15.30;99.90
7206;DHT22;3644;53.480;10.004;2023-08-08T01:16:13;15.50;99.90
7206;DHT22;3644;53.480;10.004;2023-08-08T01:18:39;15.30;99.90
7206;DHT22;3644;53.480;10.004;2023-08-08T01:21:06;15.40;99.90
7206;DHT22;3644;53.480;10.004;2023-08-08T01:23:41;15.20;99.90
7206;DHT22;3644;53.480;10.004;2023-08-08T01:26:08;15.20;99.90
7206;DHT22;3644;53.480;10.004;2023-08-08T01:28:34;15.20;99.90
7206;DHT22;3644;53.480;10.004;2023-08-08T01:30:59;15.20;99.90
7206;DHT22;3644;53.480;10.004;2023-08-08T01:33:25;15.10;99.90
7206;DHT22;3644;53.480;10.004;2023-08-08T01:35:54;15.20;99.90
7206;DHT22;3644;53.480;10.004;2023-08-08T01:38:26;15.30;99.90
7206;DHT22;3644;53.480;10.004;2023-08-08T01:40:55;15.10;99.90
7206;DHT22;3644;53.480;10.004;2023-08-08T01:43:22;15.00;99.90
7206;DHT22;3644;53.480;10.004;2023-08-08T01:45:49;14.90;99.90
7206;DHT22;3644;53.480;10.004;2023-08-08T01:48:15;15.10;99.90
7206;DHT22;3644;53.480;10.004;2023-08-08T01:50:41;15.20;99.90
7206;DHT22;3644;53.480;10.004;2023-08-08T01:53:06;15.20;99.90
7206;DHT22;3644;53.480;10.004;2023-08-08T01:55:32;15.20;99.90
7206;DHT22;3644;53.480;10.004;2023-08-08T01:57:58;15.00;99.90
7206;DHT22;3644;53.480;10.004;2023-08-08T02:00:23;15.00;99.90
7206;DHT22;3644;53.480;10.004;2023-08-08T02:02:49;14.90;99.90
7206;DHT22;3644;53.480;10.004;2023-08-08T02:05:14;14.70;99.90
7206;DHT22;3644;53.480;10.004;2023-08-08T02:07:40;14.60;99.90
7206;DHT22;3644;53.480;10.004;2023-08-08T02:10:06;15.00;99.90
7206;DHT22;3644;53.480;10.004;2023-08-08T02:12:31;14.90;99.90
7206;DHT22;3644;53.480;10.004;2023-08-08T02:14:57;14.80;99.90
7206;DHT22;3644;53.480;10.004;2023-08-08T02:17:24;14.90;99.90
7206;DHT22;3644;53.480;10.004;2023-08-08T02:19:49;15.00;99.90
7206;DHT22;3644;53.480;10.004;2023-08-08T02:22:15;14.90;99.90
7206;DHT22;3644;53.480;10.004;2023-08-08T02:24:40;14.90;99.90
7206;DHT22;3644;53.480;10.004;2023-08-08T02:27:06;14.90;99.90
7206;DHT22;3644;53.480;10.004;2023-08-08T02:29:31;14.90;99.90
7206;DHT22;3644;53.480;10.004;2023-08-08T02:31:57;15.00;99.90
7206;DHT22;3644;53.480;10.004;2023-08-08T02:34:22;15.00;99.90
7206;DHT22;3644;53.480;10.004;2023-08-08T02:36:48;15.10;99.90
7206;DHT22;3644;53.480;10.004;2023-08-08T02:39:13;15.00;99.90
7206;DHT22;3644;53.480;10.004;2023-08-08T02:41:39;14.80;99.90
7206;DHT22;3644;53.480;10.004;2023-08-08T02:44:04;14.90;99.90
7206;DHT22;3644;53.480;10.004;2023-08-08T02:46:30;15.00;99.90
7206;DHT22;3644;53.480;10.004;2023-08-08T02:48:55;14.90;99.90
7206;DHT22;3644;53.480;10.004;2023-08-08T02:51:21;15.10;99.90
7206;DHT22;3644;53.480;10.004;2023-08-08T02:53:46;15.00;99.90
7206;DHT22;3644;53.480;10.004;2023-08-08T02:56:12;14.70;99.90
7206;DHT22;3644;53.480;10.004;2023-08-08T02:58:37;14.80;99.90
7206;DHT22;3644;53.480;10.004;2023-08-08T03:01:03;14.90;99.90
7206;DHT22;3644;53.480;10.004;2023-08-08T03:03:28;14.60;99.90
7206;DHT22;3644;53.480;10.004;2023-08-08T03:05:54;14.60;99.90
7206;DHT22;3644;53.480;10.004;2023-08-08T03:08:19;14.70;99.90
7206;DHT22;3644;53.480;10.004;2023-08-08T03:10:45;14.70;99.90
7206;DHT22;3644;53.480;10.004;2023-08-08T03:13:10;14.60;99.90
7206;DHT22;3644;53.480;10.004;2023-08-08T03:15:36;14.80;99.90
7206;DHT22;3644;53.480;10.004;2023-08-08T03:18:02;14.90;99.90
7206;DHT22;3644;53.480;10.004;2023-08-08T03:20:28;14.90;99.90
7206;DHT22;3644;53.480;10.004;2023-08-08T03:22:54;15.00;99.90
7206;DHT22;3644;53.480;10.004;2023-08-08T03:25:20;15.00;99.90
7206;DHT22;3644;53.480;10.004;2023-08-08T03:27:45;14.80;99.90
7206;DHT22;3644;53.480;10.004;2023-08-08T03:30:11;14.80;99.90
7206;DHT22;3644;53.480;10.004;2023-08-08T03:32:37;15.00;99.90
7206;DHT22;3644;53.480;10.004;2023-08-08T03:35:02;15.10;99.90
7206;DHT22;3644;53.480;10.004;2023-08-08T03:37:28;15.10;99.90
7206;DHT22;3644;53.480;10.004;2023-08-08T03:39:54;15.00;99.90
7206;DHT22;3644;53.480;10.004;2023-08-08T03:42:19;14.90;99.90
7206;DHT22;3644;53.480;10.004;2023-08-08T03:44:45;14.90;99.90
7206;DHT22;3644;53.480;10.004;2023-08-08T03:47:10;14.80;99.90
7206;DHT22;3644;53.480;10.004;2023-08-08T03:49:36;15.00;99.90
7206;DHT22;3644;53.480;10.004;2023-08-08T03:52:01;14.80;99.90
7206;DHT22;3644;53.480;10.004;2023-08-08T03:54:27;15.00;99.90
7206;DHT22;3644;53.480;10.004;2023-08-08T03:56:52;15.10;99.90
7206;DHT22;3644;53.480;10.004;2023-08-08T03:59:18;14.90;99.90
7206;DHT22;3644;53.480;10.004;2023-08-08T04:01:43;15.00;99.90
7206;DHT22;3644;53.480;10.004;2023-08-08T04:04:09;15.10;99.90
7206;DHT22;3644;53.480;10.004;2023-08-08T04:06:34;14.90;99.90
7206;DHT22;3644;53.480;10.004;2023-08-08T04:09:00;15.00;99.90
7206;DHT22;3644;53.480;10.004;2023-08-08T04:11:26;15.10;99.90
7206;DHT22;3644;53.480;10.004;2023-08-08T04:13:52;14.90;99.90
7206;DHT22;3644;53.480;10.004;2023-08-08T04:16:18;15.00;99.90
7206;DHT22;3644;53.480;10.004;2023-08-08T04:18:43;15.00;99.90
7206;DHT22;3644;53.480;10.004;2023-08-08T04:21:09;15.20;99.90
7206;DHT22;3644;53.480;10.004;2023-08-08T04:23:34;15.10;99.90
7206;DHT22;3644;53.480;10.004;2023-08-08T04:26:00;14.90;99.90
7206;DHT22;3644;53.480;10.004;2023-08-08T04:28:26;14.90;99.90
7206;DHT22;3644;53.480;10.004;2023-08-08T04:30:51;15.00;99.90
7206;DHT22;3644;53.480;10.004;2023-08-08T04:33:17;14.80;99.90
7206;DHT22;3644;53.480;10.004;2023-08-08T04:35:42;15.00;99.90
7206;DHT22;3644;53.480;10.004;2023-08-08T04:38:08;15.10;99.90
7206;DHT22;3644;53.480;10.004;2023-08-08T04:40:34;15.20;99.90
7206;DHT22;3644;53.480;10.004;2023-08-08T04:43:00;15.20;99.90
7206;DHT22;3644;53.480;10.004;2023-08-08T04:45:26;15.20;99.90
7206;DHT22;3644;53.480;10.004;2023-08-08T04:47:52;15.10;99.90
7206;DHT22;3644;53.480;10.004;2023-08-08T04:50:18;15.10;99.90
7206;DHT22;3644;53.480;10.004;2023-08-08T04:52:43;15.20;99.90
7206;DHT22;3644;53.480;10.004;2023-08-08T04:55:09;15.20;99.90
7206;DHT22;3644;53.480;10.004;2023-08-08T04:57:34;15.40;99.90
7206;DHT22;3644;53.480;10.004;2023-08-08T05:00:00;15.60;99.90
7206;DHT22;3644;53.480;10.004;2023-08-08T05:02:30;15.80;99.90
7206;DHT22;3644;53.480;10.004;2023-08-08T05:04:55;15.70;99.90
7206;DHT22;3644;53.480;10.004;2023-08-08T05:07:21;15.70;99.90
7206;DHT22;3644;53.480;10.004;2023-08-08T05:09:46;15.60;99.90
7206;DHT22;3644;53.480;10.004;2023-08-08T05:12:12;15.60;99.90
7206;DHT22;3644;53.480;10.004;2023-08-08T05:14:37;15.70;99.90
7206;DHT22;3644;53.480;10.004;2023-08-08T05:17:03;15.90;99.90
7206;DHT22;3644;53.480;10.004;2023-08-08T05:19:29;16.00;99.90
7206;DHT22;3644;53.480;10.004;2023-08-08T05:21:54;16.00;99.90
7206;DHT22;3644;53.480;10.004;2023-08-08T05:24:19;16.30;99.90
7206;DHT22;3644;53.480;10.004;2023-08-08T05:26:45;16.30;99.90
7206;DHT22;3644;53.480;10.004;2023-08-08T05:29:10;16.40;99.90
7206;DHT22;3644;53.480;10.004;2023-08-08T05:31:36;16.50;99.90
7206;DHT22;3644;53.480;10.004;2023-08-08T05:34:01;16.70;99.90
7206;DHT22;3644;53.480;10.004;2023-08-08T05:36:27;16.80;99.90
7206;DHT22;3644;53.480;10.004;2023-08-08T05:38:52;16.90;99.90
7206;DHT22;3644;53.480;10.004;2023-08-08T05:41:18;17.00;99.90
7206;DHT22;3644;53.480;10.004;2023-08-08T05:43:43;17.00;99.90
7206;DHT22;3644;53.480;10.004;2023-08-08T05:46:09;17.00;99.90
7206;DHT22;3644;53.480;10.004;2023-08-08T05:48:34;17.10;99.90
7206;DHT22;3644;53.480;10.004;2023-08-08T05:51:00;16.90;99.90
7206;DHT22;3644;53.480;10.004;2023-08-08T05:53:28;16.70;99.90
7206;DHT22;3644;53.480;10.004;2023-08-08T05:55:53;16.70;99.90
7206;DHT22;3644;53.480;10.004;2023-08-08T05:58:19;16.40;99.90
7206;DHT22;3644;53.480;10.004;2023-08-08T06:00:44;16.40;99.90
7206;DHT22;3644;53.480;10.004;2023-08-08T06:03:10;16.60;99.90
7206;DHT22;3644;53.480;10.004;2023-08-08T06:05:35;16.40;99.90
7206;DHT22;3644;53.480;10.004;2023-08-08T06:08:00;16.40;99.90
7206;DHT22;3644;53.480;10.004;2023-08-08T06:10:26;16.40;99.90
7206;DHT22;3644;53.480;10.004;2023-08-08T06:12:51;16.50;99.90
7206;DHT22;3644;53.480;10.004;2023-08-08T06:15:17;16.70;99.90
7206;DHT22;3644;53.480;10.004;2023-08-08T06:17:43;16.70;99.90
7206;DHT22;3644;53.480;10.004;2023-08-08T06:20:08;16.80;99.90
7206;DHT22;3644;53.480;10.004;2023-08-08T06:22:38;17.00;99.90
7206;DHT22;3644;53.480;10.004;2023-08-08T06:25:04;16.90;99.90
7206;DHT22;3644;53.480;10.004;2023-08-08T06:27:30;17.00;99.90
7206;DHT22;3644;53.480;10.004;2023-08-08T06:29:55;16.90;99.90
7206;DHT22;3644;53.480;10.004;2023-08-08T06:32:21;16.70;99.90
7206;DHT22;3644;53.480;10.004;2023-08-08T06:34:47;16.80;99.90
7206;DHT22;3644;53.480;10.004;2023-08-08T06:37:13;16.80;99.90
7206;DHT22;3644;53.480;10.004;2023-08-08T06:39:38;16.80;99.90
7206;DHT22;3644;53.480;10.004;2023-08-08T06:42:05;16.80;99.90
7206;DHT22;3644;53.480;10.004;2023-08-08T06:44:32;16.90;99.90
7206;DHT22;3644;53.480;10.004;2023-08-08T06:46:58;17.00;99.90
7206;DHT22;3644;53.480;10.004;2023-08-08T06:49:24;17.20;99.90
7206;DHT22;3644;53.480;10.004;2023-08-08T06:51:49;17.20;99.90
7206;DHT22;3644;53.480;10.004;2023-08-08T06:54:15;17.10;99.90
7206;DHT22;3644;53.480;10.004;2023-08-08T06:56:41;17.00;99.90
7206;DHT22;3644;53.480;10.004;2023-08-08T06:59:06;17.30;99.90
7206;DHT22;3644;53.480;10.004;2023-08-08T07:01:32;17.30;99.90
7206;DHT22;3644;53.480;10.004;2023-08-08T07:03:57;17.60;99.90
7206;DHT22;3644;53.480;10.004;2023-08-08T07:06:23;17.80;99.90
7206;DHT22;3644;53.480;10.004;2023-08-08T07:08:49;18.00;99.90
7206;DHT22;3644;53.480;10.004;2023-08-08T07:11:14;18.00;99.90
7206;DHT22;3644;53.480;10.004;2023-08-08T07:13:40;17.90;99.90
7206;DHT22;3644;53.480;10.004;2023-08-08T07:16:05;17.80;99.90
7206;DHT22;3644;53.480;10.004;2023-08-08T07:18:31;17.80;99.90
7206;DHT22;3644;53.480;10.004;2023-08-08T07:20:56;18.10;99.90
7206;DHT22;3644;53.480;10.004;2023-08-08T07:23:22;18.00;99.90
7206;DHT22;3644;53.480;10.004;2023-08-08T07:25:48;18.00;99.90
7206;DHT22;3644;53.480;10.004;2023-08-08T07:28:14;18.00;99.90
7206;DHT22;3644;53.480;10.004;2023-08-08T07:30:40;18.10;99.90
7206;DHT22;3644;53.480;10.004;2023-08-08T07:33:06;18.00;99.90
7206;DHT22;3644;53.480;10.004;2023-08-08T07:35:33;17.80;99.90
7206;DHT22;3644;53.480;10.004;2023-08-08T07:37:59;17.90;99.90
7206;DHT22;3644;53.480;10.004;2023-08-08T07:40:25;17.80;99.90
7206;DHT22;3644;53.480;10.004;2023-08-08T07:42:50;18.20;99.90
7206;DHT22;3644;53.480;10.004;2023-08-08T07:45:16;18.40;99.90
7206;DHT22;3644;53.480;10.004;2023-08-08T07:47:41;18.60;99.90
7206;DHT22;3644;53.480;10.004;2023-08-08T07:50:08;18.60;99.90
7206;DHT22;3644;53.480;10.004;2023-08-08T07:52:34;18.70;99.90
7206;DHT22;3644;53.480;10.004;2023-08-08T07:55:00;18.80;99.90
7206;DHT22;3644;53.480;10.004;2023-08-08T07:57:27;18.80;99.90
7206;DHT22;3644;53.480;10.004;2023-08-08T07:59:53;18.70;99.90
7206;DHT22;3644;53.480;10.004;2023-08-08T08:02:18;19.10;99.90
7206;DHT22;3644;53.480;10.004;2023-08-08T08:04:44;19.20;99.90
7206;DHT22;3644;53.480;10.004;2023-08-08T08:07:09;19.30;99.90
7206;DHT22;3644;53.480;10.004;2023-08-08T08:09:35;19.30;99.90
7206;DHT22;3644;53.480;10.004;2023-08-08T08:12:00;19.30;99.90
7206;DHT22;3644;53.480;10.004;2023-08-08T08:14:26;19.30;99.90
7206;DHT22;3644;53.480;10.004;2023-08-08T08:16:52;19.30;99.90
7206;DHT22;3644;53.480;10.004;2023-08-08T08:19:17;19.20;99.90
7206;DHT22;3644;53.480;10.004;2023-08-08T08:21:43;19.10;99.90
7206;DHT22;3644;53.480;10.004;2023-08-08T08:24:08;18.90;99.90
7206;DHT22;3644;53.480;10.004;2023-08-08T08:26:34;19.00;99.90
7206;DHT22;3644;53.480;10.004;2023-08-08T08:28:59;19.00;99.90
7206;DHT22;3644;53.480;10.004;2023-08-08T08:31:25;18.80;99.90
7206;DHT22;3644;53.480;10.004;2023-08-08T08:33:50;18.80;99.90
7206;DHT22;3644;53.480;10.004;2023-08-08T08:36:16;18.60;99.90
7206;DHT22;3644;53.480;10.004;2023-08-08T08:38:42;18.80;99.90
7206;DHT22;3644;53.480;10.004;2023-08-08T08:41:08;18.60;99.90
7206;DHT22;3644;53.480;10.004;2023-08-08T08:43:34;18.80;99.90
7206;DHT22;3644;53.480;10.004;2023-08-08T08:46:00;18.80;99.90
7206;DHT22;3644;53.480;10.004;2023-08-08T08:48:27;18.90;99.90
7206;DHT22;3644;53.480;10.004;2023-08-08T08:50:53;19.00;99.90
7206;DHT22;3644;53.480;10.004;2023-08-08T08:53:19;19.10;99.90
7206;DHT22;3644;53.480;10.004;2023-08-08T08:55:46;19.20;99.90
7206;DHT22;3644;53.480;10.004;2023-08-08T08:58:14;19.20;99.90
7206;DHT22;3644;53.480;10.004;2023-08-08T09:00:43;19.10;99.90
7206;DHT22;3644;53.480;10.004;2023-08-08T09:03:09;19.20;99.90
7206;DHT22;3644;53.480;10.004;2023-08-08T09:05:34;19.30;99.90
7206;DHT22;3644;53.480;10.004;2023-08-08T09:08:00;19.60;99.90
7206;DHT22;3644;53.480;10.004;2023-08-08T09:10:27;19.80;99.90
7206;DHT22;3644;53.480;10.004;2023-08-08T09:12:53;19.90;99.90
7206;DHT22;3644;53.480;10.004;2023-08-08T09:15:19;20.10;99.90
7206;DHT22;3644;53.480;10.004;2023-08-08T09:17:45;19.70;99.90
7206;DHT22;3644;53.480;10.004;2023-08-08T09:20:12;19.70;99.90
7206;DHT22;3644;53.480;10.004;2023-08-08T09:22:38;19.70;99.90
7206;DHT22;3644;53.480;10.004;2023-08-08T09:25:05;19.70;99.90
7206;DHT22;3644;53.480;10.004;2023-08-08T09:27:31;19.50;99.90
7206;DHT22;3644;53.480;10.004;2023-08-08T09:29:57;19.30;99.90
7206;DHT22;3644;53.480;10.004;2023-08-08T09:32:22;19.10;99.90
7206;DHT22;3644;53.480;10.004;2023-08-08T09:34:48;19.10;99.90
7206;DHT22;3644;53.480;10.004;2023-08-08T09:37:14;19.20;99.90
7206;DHT22;3644;53.480;10.004;2023-08-08T09:39:40;19.20;99.90
7206;DHT22;3644;53.480;10.004;2023-08-08T09:42:07;19.10;99.90
7206;DHT22;3644;53.480;10.004;2023-08-08T09:44:33;19.30;99.90
7206;DHT22;3644;53.480;10.004;2023-08-08T09:47:00;19.60;99.90
7206;DHT22;3644;53.480;10.004;2023-08-08T09:49:26;19.70;99.90
7206;DHT22;3644;53.480;10.004;2023-08-08T09:51:52;19.90;99.90
7206;DHT22;3644;53.480;10.004;2023-08-08T09:54:18;19.80;99.90
7206;DHT22;3644;53.480;10.004;2023-08-08T09:56:45;19.60;99.90
7206;DHT22;3644;53.480;10.004;2023-08-08T09:59:11;19.80;99.90
7206;DHT22;3644;53.480;10.004;2023-08-08T10:01:40;19.10;99.90
7206;DHT22;3644;53.480;10.004;2023-08-08T10:04:06;19.00;99.90
7206;DHT22;3644;53.480;10.004;2023-08-08T10:06:32;19.00;99.90
7206;DHT22;3644;53.480;10.004;2023-08-08T10:08:57;19.30;99.90
7206;DHT22;3644;53.480;10.004;2023-08-08T10:11:24;19.40;99.90
7206;DHT22;3644;53.480;10.004;2023-08-08T10:13:52;19.50;99.90
7206;DHT22;3644;53.480;10.004;2023-08-08T10:16:18;19.30;99.90
7206;DHT22;3644;53.480;10.004;2023-08-08T10:18:58;19.10;99.90
7206;DHT22;3644;53.480;10.004;2023-08-08T10:21:24;18.70;99.90
7206;DHT22;3644;53.480;10.004;2023-08-08T10:24:10;18.70;99.90
7206;DHT22;3644;53.480;10.004;2023-08-08T10:26:52;18.60;99.90
7206;DHT22;3644;53.480;10.004;2023-08-08T10:29:19;18.70;99.90
7206;DHT22;3644;53.480;10.004;2023-08-08T10:31:59;18.50;99.90
7206;DHT22;3644;53.480;10.004;2023-08-08T10:37:17;17.90;99.90
7206;DHT22;3644;53.480;10.004;2023-08-08T10:39:58;18.20;99.90
7206;DHT22;3644;53.480;10.004;2023-08-08T10:42:28;18.60;99.90
7206;DHT22;3644;53.480;10.004;2023-08-08T10:45:00;19.00;99.90
7206;DHT22;3644;53.480;10.004;2023-08-08T10:47:33;19.30;99.90
7206;DHT22;3644;53.480;10.004;2023-08-08T10:52:52;19.70;99.90
7206;DHT22;3644;53.480;10.004;2023-08-08T10:55:47;19.90;99.90
7206;DHT22;3644;53.480;10.004;2023-08-08T10:58:21;19.60;99.90
7206;DHT22;3644;53.480;10.004;2023-08-08T11:00:47;19.20;99.90
7206;DHT22;3644;53.480;10.004;2023-08-08T11:03:14;19.20;99.90
7206;DHT22;3644;53.480;10.004;2023-08-08T11:05:40;19.20;99.90
7206;DHT22;3644;53.480;10.004;2023-08-08T11:08:09;18.40;99.90
7206;DHT22;3644;53.480;10.004;2023-08-08T11:10:39;18.30;99.90
7206;DHT22;3644;53.480;10.004;2023-08-08T11:13:06;18.20;99.90
7206;DHT22;3644;53.480;10.004;2023-08-08T11:15:33;17.80;99.90
7206;DHT22;3644;53.480;10.004;2023-08-08T11:18:00;17.90;99.90
7206;DHT22;3644;53.480;10.004;2023-08-08T11:20:29;17.70;99.90
7206;DHT22;3644;53.480;10.004;2023-08-08T11:22:56;17.60;99.90
7206;DHT22;3644;53.480;10.004;2023-08-08T11:25:22;17.70;99.90
7206;DHT22;3644;53.480;10.004;2023-08-08T11:27:54;18.00;99.90
7206;DHT22;3644;53.480;10.004;2023-08-08T11:30:21;17.70;99.90
7206;DHT22;3644;53.480;10.004;2023-08-08T11:32:48;17.70;99.90
7206;DHT22;3644;53.480;10.004;2023-08-08T11:35:20;17.80;99.90
7206;DHT22;3644;53.480;10.004;2023-08-08T11:37:47;17.60;99.90
7206;DHT22;3644;53.480;10.004;2023-08-08T11:40:14;17.50;99.90
7206;DHT22;3644;53.480;10.004;2023-08-08T11:42:40;17.60;99.90
7206;DHT22;3644;53.480;10.004;2023-08-08T11:45:08;18.00;99.90
7206;DHT22;3644;53.480;10.004;2023-08-08T11:47:35;18.10;99.90
7206;DHT22;3644;53.480;10.004;2023-08-08T11:50:03;18.10;99.90
7206;DHT22;3644;53.480;10.004;2023-08-08T11:52:29;17.70;99.90
7206;DHT22;3644;53.480;10.004;2023-08-08T11:54:58;17.40;99.90
7206;DHT22;3644;53.480;10.004;2023-08-08T11:57:25;17.30;99.90
7206;DHT22;3644;53.480;10.004;2023-08-08T11:59:56;17.60;99.90
7206;DHT22;3644;53.480;10.004;2023-08-08T12:02:23;17.50;99.90
7206;DHT22;3644;53.480;10.004;2023-08-08T12:04:48;17.90;99.90
7206;DHT22;3644;53.480;10.004;2023-08-08T12:07:14;17.90;99.90
7206;DHT22;3644;53.480;10.004;2023-08-08T12:09:40;18.30;99.90
7206;DHT22;3644;53.480;10.004;2023-08-08T12:12:06;18.50;99.90
7206;DHT22;3644;53.480;10.004;2023-08-08T12:14:38;18.40;99.90
7206;DHT22;3644;53.480;10.004;2023-08-08T12:17:04;18.30;99.90
7206;DHT22;3644;53.480;10.004;2023-08-08T12:19:30;18.20;99.90
7206;DHT22;3644;53.480;10.004;2023-08-08T12:21:55;18.00;99.90
7206;DHT22;3644;53.480;10.004;2023-08-08T12:24:21;18.10;99.90
7206;DHT22;3644;53.480;10.004;2023-08-08T12:26:46;18.20;99.90
7206;DHT22;3644;53.480;10.004;2023-08-08T12:29:15;18.00;99.90
7206;DHT22;3644;53.480;10.004;2023-08-08T12:31:41;18.10;99.90
7206;DHT22;3644;53.480;10.004;2023-08-08T12:34:06;18.40;99.90
7206;DHT22;3644;53.480;10.004;2023-08-08T12:36:32;18.40;99.90
7206;DHT22;3644;53.480;10.004;2023-08-08T12:38:57;18.40;99.90
7206;DHT22;3644;53.480;10.004;2023-08-08T12:41:23;18.50;99.90
7206;DHT22;3644;53.480;10.004;2023-08-08T12:43:50;18.60;99.90
7206;DHT22;3644;53.480;10.004;2023-08-08T12:46:16;18.90;99.90
7206;DHT22;3644;53.480;10.004;2023-08-08T12:48:41;18.90;99.90
7206;DHT22;3644;53.480;10.004;2023-08-08T12:51:08;19.00;99.90
7206;DHT22;3644;53.480;10.004;2023-08-08T12:53:34;19.30;99.90
7206;DHT22;3644;53.480;10.004;2023-08-08T12:56:00;19.30;99.90
7206;DHT22;3644;53.480;10.004;2023-08-08T12:58:26;19.50;99.90
7206;DHT22;3644;53.480;10.004;2023-08-08T13:00:51;19.40;99.90
7206;DHT22;3644;53.480;10.004;2023-08-08T13:03:17;19.50;99.90
7206;DHT22;3644;53.480;10.004;2023-08-08T13:05:42;19.60;99.90
7206;DHT22;3644;53.480;10.004;2023-08-08T13:08:08;19.90;99.90
7206;DHT22;3644;53.480;10.004;2023-08-08T13:10:35;20.10;99.90
7206;DHT22;3644;53.480;10.004;2023-08-08T13:13:00;20.40;99.90
7206;DHT22;3644;53.480;10.004;2023-08-08T13:15:26;20.60;99.90
7206;DHT22;3644;53.480;10.004;2023-08-08T13:17:51;20.40;99.90
7206;DHT22;3644;53.480;10.004;2023-08-08T13:20:17;19.90;99.90
7206;DHT22;3644;53.480;10.004;2023-08-08T13:22:42;19.50;99.90
7206;DHT22;3644;53.480;10.004;2023-08-08T13:25:08;19.00;99.90
7206;DHT22;3644;53.480;10.004;2023-08-08T13:27:34;18.90;99.90
7206;DHT22;3644;53.480;10.004;2023-08-08T13:29:59;18.50;99.90
7206;DHT22;3644;53.480;10.004;2023-08-08T13:32:25;18.30;99.90
7206;DHT22;3644;53.480;10.004;2023-08-08T13:34:50;18.80;99.90
7206;DHT22;3644;53.480;10.004;2023-08-08T13:37:16;19.10;99.90
7206;DHT22;3644;53.480;10.004;2023-08-08T13:39:41;19.30;99.90
7206;DHT22;3644;53.480;10.004;2023-08-08T13:42:08;19.40;99.90
7206;DHT22;3644;53.480;10.004;2023-08-08T13:44:34;19.50;99.90
7206;DHT22;3644;53.480;10.004;2023-08-08T13:47:00;19.40;99.90
7206;DHT22;3644;53.480;10.004;2023-08-08T13:49:25;19.60;99.90
7206;DHT22;3644;53.480;10.004;2023-08-08T13:51:52;19.90;99.90
7206;DHT22;3644;53.480;10.004;2023-08-08T13:54:19;20.20;99.90
7206;DHT22;3644;53.480;10.004;2023-08-08T13:56:44;20.60;99.90
7206;DHT22;3644;53.480;10.004;2023-08-08T13:59:10;20.40;99.90
7206;DHT22;3644;53.480;10.004;2023-08-08T14:01:35;20.10;99.90
7206;DHT22;3644;53.480;10.004;2023-08-08T14:04:01;19.10;99.90
7206;DHT22;3644;53.480;10.004;2023-08-08T14:06:27;18.30;99.90
7206;DHT22;3644;53.480;10.004;2023-08-08T14:08:52;17.90;99.90
7206;DHT22;3644;53.480;10.004;2023-08-08T14:11:18;18.00;99.90
7206;DHT22;3644;53.480;10.004;2023-08-08T14:13:43;17.80;99.90
7206;DHT22;3644;53.480;10.004;2023-08-08T14:16:09;17.60;99.90
7206;DHT22;3644;53.480;10.004;2023-08-08T14:18:35;17.50;99.90
7206;DHT22;3644;53.480;10.004;2023-08-08T14:21:00;17.10;99.90
7206;DHT22;3644;53.480;10.004;2023-08-08T14:23:28;17.20;99.90
7206;DHT22;3644;53.480;10.004;2023-08-08T14:25:53;16.90;99.90
7206;DHT22;3644;53.480;10.004;2023-08-08T14:28:19;16.80;99.90
7206;DHT22;3644;53.480;10.004;2023-08-08T14:30:44;16.90;99.90
7206;DHT22;3644;53.480;10.004;2023-08-08T14:33:14;17.00;99.90
7206;DHT22;3644;53.480;10.004;2023-08-08T14:35:39;16.90;99.90
7206;DHT22;3644;53.480;10.004;2023-08-08T14:38:05;16.90;99.90
7206;DHT22;3644;53.480;10.004;2023-08-08T14:40:31;16.80;99.90
7206;DHT22;3644;53.480;10.004;2023-08-08T14:42:57;17.10;99.90
7206;DHT22;3644;53.480;10.004;2023-08-08T14:45:23;17.30;99.90
7206;DHT22;3644;53.480;10.004;2023-08-08T14:47:49;17.40;99.90
7206;DHT22;3644;53.480;10.004;2023-08-08T14:50:16;17.40;99.90
7206;DHT22;3644;53.480;10.004;2023-08-08T14:52:41;17.50;99.90
7206;DHT22;3644;53.480;10.004;2023-08-08T14:55:07;17.40;99.90
7206;DHT22;3644;53.480;10.004;2023-08-08T14:57:33;17.40;99.90
7206;DHT22;3644;53.480;10.004;2023-08-08T14:59:58;17.20;99.90
7206;DHT22;3644;53.480;10.004;2023-08-08T15:02:25;17.40;99.90
7206;DHT22;3644;53.480;10.004;2023-08-08T15:04:51;17.70;99.90
7206;DHT22;3644;53.480;10.004;2023-08-08T15:07:16;17.80;99.90
7206;DHT22;3644;53.480;10.004;2023-08-08T15:09:42;17.90;99.90
7206;DHT22;3644;53.480;10.004;2023-08-08T15:12:08;18.00;99.90
7206;DHT22;3644;53.480;10.004;2023-08-08T15:14:34;18.00;99.90
7206;DHT22;3644;53.480;10.004;2023-08-08T15:16:59;18.00;99.90
7206;DHT22;3644;53.480;10.004;2023-08-08T15:19:25;18.10;99.90
7206;DHT22;3644;53.480;10.004;2023-08-08T15:21:50;18.20;99.90
7206;DHT22;3644;53.480;10.004;2023-08-08T15:24:16;18.10;99.90
7206;DHT22;3644;53.480;10.004;2023-08-08T15:26:41;17.80;99.90
7206;DHT22;3644;53.480;10.004;2023-08-08T15:29:07;17.80;99.90
7206;DHT22;3644;53.480;10.004;2023-08-08T15:31:32;18.00;99.90
7206;DHT22;3644;53.480;10.004;2023-08-08T15:33:58;18.30;99.90
7206;DHT22;3644;53.480;10.004;2023-08-08T15:36:24;18.40;99.90
7206;DHT22;3644;53.480;10.004;2023-08-08T15:38:49;18.40;99.90
7206;DHT22;3644;53.480;10.004;2023-08-08T15:41:15;18.30;99.90
7206;DHT22;3644;53.480;10.004;2023-08-08T15:43:40;18.40;99.90